createdAt,value
2018-07-27T00:00:03.256Z,99023.09
2018-07-27T00:00:34.579Z,99024.09
2018-07-27T00:01:05.831Z,99021.38
2018-07-27T00:01:36.952Z,99024.53
2018-07-27T00:02:08.089Z,99019.61
2018-07-27T00:02:39.216Z,99017.44
2018-07-27T00:03:10.392Z,99026.47
2018-07-27T00:03:41.527Z,99021.16
2018-07-27T00:04:12.753Z,99026.11
2018-07-27T00:04:43.984Z,99019.47
2018-07-27T00:05:15.155Z,99026.01
2018-07-27T00:05:46.296Z,99027.34
2018-07-27T00:06:17.488Z,99021.02
2018-07-27T00:06:48.661Z,99023.20
2018-07-27T00:07:19.819Z,99023.67
2018-07-27T00:07:50.989Z,99020.91
2018-07-27T00:08:22.109Z,99021.59
2018-07-27T00:08:53.288Z,99017.13
2018-07-27T00:09:24.405Z,99023.78
2018-07-27T00:09:55.644Z,99023.89
2018-07-27T00:10:26.818Z,99024.78
2018-07-27T00:10:58.012Z,99019.67
2018-07-27T00:11:29.204Z,99017.26
2018-07-27T00:12:00.429Z,99018.23
2018-07-27T00:12:31.637Z,99018.59
2018-07-27T00:13:02.854Z,99017.62
2018-07-27T00:13:33.965Z,99013.98
2018-07-27T00:14:05.160Z,99021.08
2018-07-27T00:14:36.329Z,99021.66
2018-07-27T00:15:07.487Z,99020.18
2018-07-27T00:15:38.647Z,99018.49
2018-07-27T00:16:09.782Z,99017.95
2018-07-27T00:16:41.237Z,99018.56
2018-07-27T00:17:12.516Z,99021.88
2018-07-27T00:17:43.820Z,99022.48
2018-07-27T00:18:15.003Z,99022.41
2018-07-27T00:18:46.127Z,99021.33
2018-07-27T00:19:17.301Z,99021.69
2018-07-27T00:19:48.483Z,99014.20
2018-07-27T00:20:19.668Z,99022.19
2018-07-27T00:20:50.955Z,99019.53
2018-07-27T00:21:23.125Z,99020.14
2018-07-27T00:21:54.293Z,99017.98
2018-07-27T00:22:25.783Z,99019.42
2018-07-27T00:22:56.911Z,99023.08
2018-07-27T00:23:28.093Z,99028.80
2018-07-27T00:23:59.279Z,99027.24
2018-07-27T00:24:30.491Z,99022.17
2018-07-27T00:25:01.605Z,99024.89
2018-07-27T00:25:32.765Z,99022.12
2018-07-27T00:26:03.919Z,99024.05
2018-07-27T00:26:35.083Z,99022.00
2018-07-27T00:27:06.195Z,99023.11
2018-07-27T00:27:37.370Z,99026.38
2018-07-27T00:28:08.545Z,99022.17
2018-07-27T00:28:39.725Z,99022.31
2018-07-27T00:29:10.964Z,99020.29
2018-07-27T00:29:42.142Z,99017.52
2018-07-27T00:30:13.508Z,99021.14
2018-07-27T00:30:44.668Z,99022.25
2018-07-27T00:31:15.882Z,99021.55
2018-07-27T00:31:47.097Z,99026.73
2018-07-27T00:32:18.512Z,99019.73
2018-07-27T00:32:49.787Z,99021.55
2018-07-27T00:33:20.913Z,99017.42
2018-07-27T00:33:52.024Z,99017.66
2018-07-27T00:34:23.250Z,99018.02
2018-07-27T00:34:54.465Z,99014.38
2018-07-27T00:35:25.636Z,99016.05
2018-07-27T00:35:56.806Z,99018.98
2018-07-27T00:36:27.971Z,99014.41
2018-07-27T00:36:59.190Z,99010.20
2018-07-27T00:37:30.358Z,99016.48
2018-07-27T00:38:01.532Z,99016.13
2018-07-27T00:38:32.708Z,99013.83
2018-07-27T00:39:03.837Z,99011.52
2018-07-27T00:39:34.968Z,99015.52
2018-07-27T00:40:06.111Z,99015.16
2018-07-27T00:40:37.220Z,99021.80
2018-07-27T00:41:08.401Z,99017.45
2018-07-27T00:41:39.668Z,99016.13
2018-07-27T00:42:10.963Z,99013.29
2018-07-27T00:42:42.207Z,99015.95
2018-07-27T00:43:13.330Z,99017.80
2018-07-27T00:43:44.671Z,99017.08
2018-07-27T00:44:16.105Z,99016.34
2018-07-27T00:44:47.477Z,99019.50
2018-07-27T00:45:18.659Z,99019.00
2018-07-27T00:45:49.890Z,99019.87
2018-07-27T00:46:21.093Z,99020.00
2018-07-27T00:46:52.209Z,99024.59
2018-07-27T00:47:23.378Z,99016.89
2018-07-27T00:47:54.491Z,99019.55
2018-07-27T00:48:25.672Z,99020.16
2018-07-27T00:48:56.848Z,99017.14
2018-07-27T00:49:27.968Z,99013.65
2018-07-27T00:49:59.077Z,99015.95
2018-07-27T00:50:30.188Z,99014.48
2018-07-27T00:51:01.340Z,99017.86
2018-07-27T00:51:32.467Z,99016.39
2018-07-27T00:52:03.587Z,99017.23
2018-07-27T00:52:34.704Z,99017.73
2018-07-27T00:53:05.820Z,99013.23
2018-07-27T00:53:36.946Z,99014.23
2018-07-27T00:54:08.067Z,99019.55
2018-07-27T00:54:39.186Z,99016.03
2018-07-27T00:55:10.343Z,99014.34
2018-07-27T00:55:41.456Z,99016.77
2018-07-27T00:56:12.567Z,99018.84
2018-07-27T00:56:43.673Z,99019.48
2018-07-27T00:57:14.822Z,99020.30
2018-07-27T00:57:45.946Z,99018.98
2018-07-27T00:58:17.054Z,99017.19
2018-07-27T00:58:48.170Z,99018.02
2018-07-27T00:59:19.275Z,99021.50
2018-07-27T00:59:50.397Z,99018.02
2018-07-27T01:00:21.528Z,99016.55
2018-07-27T01:00:52.648Z,99022.72
2018-07-27T01:01:23.757Z,99021.17
2018-07-27T01:01:54.862Z,99023.47
2018-07-27T01:02:26.021Z,99027.92
2018-07-27T01:02:57.164Z,99023.34
2018-07-27T01:03:28.277Z,99024.34
2018-07-27T01:03:59.391Z,99026.61
2018-07-27T01:04:30.526Z,99022.89
2018-07-27T01:05:01.646Z,99024.22
2018-07-27T01:05:32.815Z,99020.02
2018-07-27T01:06:03.940Z,99023.00
2018-07-27T01:06:35.053Z,99024.46
2018-07-27T01:07:06.188Z,99027.25
2018-07-27T01:07:37.300Z,99018.55
2018-07-27T01:08:08.407Z,99016.63
2018-07-27T01:08:39.514Z,99022.22
2018-07-27T01:09:10.730Z,99021.48
2018-07-27T01:09:41.936Z,99023.31
2018-07-27T01:10:13.056Z,99018.37
2018-07-27T01:10:44.529Z,99023.45
2018-07-27T01:11:15.819Z,99025.65
2018-07-27T01:11:46.967Z,99021.30
2018-07-27T01:12:18.195Z,99019.24
2018-07-27T01:12:49.312Z,99022.39
2018-07-27T01:13:20.461Z,99019.38
2018-07-27T01:13:51.579Z,99021.17
2018-07-27T01:14:22.693Z,99024.32
2018-07-27T01:14:53.866Z,99018.28
2018-07-27T01:15:25.038Z,99016.72
2018-07-27T01:15:56.213Z,99016.72
2018-07-27T01:16:27.394Z,99023.72
2018-07-27T01:16:58.501Z,99021.53
2018-07-27T01:17:29.721Z,99017.91
2018-07-27T01:18:00.896Z,99023.45
2018-07-27T01:18:32.104Z,99016.22
2018-07-27T01:19:03.239Z,99018.37
2018-07-27T01:19:34.456Z,99017.77
2018-07-27T01:20:05.634Z,99018.23
2018-07-27T01:20:36.829Z,99022.12
2018-07-27T01:21:07.982Z,99016.31
2018-07-27T01:21:39.147Z,99017.14
2018-07-27T01:22:10.265Z,99020.16
2018-07-27T01:22:41.386Z,99017.87
2018-07-27T01:23:12.555Z,99021.86
2018-07-27T01:23:43.724Z,99018.23
2018-07-27T01:24:14.893Z,99014.61
2018-07-27T01:24:46.100Z,99017.50
2018-07-27T01:25:17.332Z,99014.34
2018-07-27T01:25:48.503Z,99014.70
2018-07-27T01:26:19.633Z,99012.14
2018-07-27T01:26:50.745Z,99015.30
2018-07-27T01:27:22.013Z,99012.55
2018-07-27T01:27:53.208Z,99011.22
2018-07-27T01:28:24.388Z,99010.72
2018-07-27T01:28:55.505Z,99004.08
2018-07-27T01:29:26.688Z,99008.92
2018-07-27T01:29:58.017Z,99006.14
2018-07-27T01:30:29.201Z,99010.48
2018-07-27T01:31:00.317Z,99007.33
2018-07-27T01:31:31.440Z,99008.28
2018-07-27T01:32:02.645Z,99009.11
2018-07-27T01:32:33.857Z,99010.30
2018-07-27T01:33:05.077Z,99004.16
2018-07-27T01:33:36.202Z,99008.01
2018-07-27T01:34:07.360Z,99007.44
2018-07-27T01:34:38.473Z,99004.52
2018-07-27T01:35:09.692Z,99010.67
2018-07-27T01:35:40.919Z,99009.84
2018-07-27T01:36:12.418Z,99010.58
2018-07-27T01:36:43.534Z,99009.84
2018-07-27T01:37:14.657Z,99013.81
2018-07-27T01:37:45.869Z,99011.43
2018-07-27T01:38:17.075Z,99006.11
2018-07-27T01:38:48.245Z,99010.09
2018-07-27T01:39:19.503Z,99005.35
2018-07-27T01:39:50.612Z,99009.34
2018-07-27T01:40:21.776Z,99007.05
2018-07-27T01:40:52.888Z,99009.34
2018-07-27T01:41:24.053Z,99005.98
2018-07-27T01:41:55.303Z,99009.11
2018-07-27T01:42:26.505Z,99006.73
2018-07-27T01:42:57.628Z,99003.94
2018-07-27T01:43:28.879Z,99010.94
2018-07-27T01:44:00.037Z,99011.30
2018-07-27T01:44:31.228Z,99009.34
2018-07-27T01:45:02.404Z,99011.53
2018-07-27T01:45:33.569Z,98999.45
2018-07-27T01:46:04.743Z,99005.17
2018-07-27T01:46:35.850Z,99010.63
2018-07-27T01:47:07.017Z,99008.70
2018-07-27T01:47:38.316Z,99007.75
2018-07-27T01:48:09.500Z,99004.63
2018-07-27T01:48:40.656Z,99000.19
2018-07-27T01:49:11.805Z,99004.04
2018-07-27T01:49:42.909Z,99006.23
2018-07-27T01:50:14.043Z,99003.08
2018-07-27T01:50:45.160Z,99000.55
2018-07-27T01:51:16.340Z,99003.34
2018-07-27T01:51:47.523Z,99006.73
2018-07-27T01:52:18.729Z,99009.39
2018-07-27T01:52:49.954Z,99001.52
2018-07-27T01:53:21.068Z,99009.48
2018-07-27T01:53:52.309Z,99004.91
2018-07-27T01:54:23.535Z,99005.73
2018-07-27T01:54:54.770Z,99007.42
2018-07-27T01:55:25.945Z,99012.64
2018-07-27T01:55:57.169Z,99005.86
2018-07-27T01:56:28.292Z,99009.84
2018-07-27T01:56:59.412Z,99011.17
2018-07-27T01:57:30.586Z,99005.13
2018-07-27T01:58:01.752Z,99009.45
2018-07-27T01:58:32.960Z,99009.45
2018-07-27T01:59:04.081Z,99008.38
2018-07-27T01:59:35.280Z,99005.59
2018-07-27T02:00:06.412Z,98697.66
2018-07-27T02:00:37.601Z,99008.38
2018-07-27T02:01:08.713Z,99010.67
2018-07-27T02:01:39.928Z,99007.16
2018-07-27T02:02:11.100Z,99009.94
2018-07-27T02:02:42.372Z,99003.16
2018-07-27T02:03:13.607Z,99008.48
2018-07-27T02:03:44.789Z,99003.16
2018-07-27T02:04:15.952Z,99007.84
2018-07-27T02:04:47.215Z,99009.17
2018-07-27T02:05:18.362Z,99006.78
2018-07-27T02:05:49.652Z,99004.40
2018-07-27T02:06:21.677Z,99006.09
2018-07-27T02:06:52.888Z,99007.66
2018-07-27T02:07:24.130Z,99007.42
2018-07-27T02:07:55.254Z,99007.20
2018-07-27T02:08:26.505Z,99006.97
2018-07-27T02:08:57.902Z,99012.88
2018-07-27T02:09:29.132Z,99012.64
2018-07-27T02:10:00.255Z,99018.31
2018-07-27T02:10:31.437Z,99016.26
2018-07-27T02:11:02.668Z,99014.70
2018-07-27T02:11:33.902Z,99014.06
2018-07-27T02:12:05.131Z,99013.70
2018-07-27T02:12:36.258Z,99016.95
2018-07-27T02:13:07.387Z,99018.78
2018-07-27T02:13:38.510Z,99014.06
2018-07-27T02:14:09.624Z,99021.20
2018-07-27T02:14:40.736Z,99013.84
2018-07-27T02:15:11.852Z,99020.84
2018-07-27T02:15:42.963Z,99016.26
2018-07-27T02:16:14.071Z,99017.59
2018-07-27T02:16:45.183Z,99014.80
2018-07-27T02:17:16.331Z,99015.39
2018-07-27T02:17:47.449Z,99015.02
2018-07-27T02:18:18.576Z,99020.56
2018-07-27T02:18:49.751Z,99019.73
2018-07-27T02:19:20.872Z,99018.41
2018-07-27T02:19:52.094Z,99017.09
2018-07-27T02:20:23.273Z,99016.48
2018-07-27T02:20:54.440Z,99016.85
2018-07-27T02:21:25.608Z,99020.56
2018-07-27T02:21:56.769Z,99017.78
2018-07-27T02:22:27.980Z,99018.01
2018-07-27T02:22:59.095Z,99018.23
2018-07-27T02:23:30.266Z,99021.12
2018-07-27T02:24:01.402Z,99025.73
2018-07-27T02:24:32.601Z,99026.80
2018-07-27T02:25:04.229Z,99024.52
2018-07-27T02:25:35.384Z,99026.56
2018-07-27T02:26:06.574Z,99026.20
2018-07-27T02:26:37.816Z,99025.84
2018-07-27T02:27:08.927Z,99032.02
2018-07-27T02:27:40.076Z,99028.86
2018-07-27T02:28:11.183Z,99028.72
2018-07-27T02:28:42.380Z,99025.23
2018-07-27T02:29:13.504Z,99027.77
2018-07-27T02:29:44.672Z,99029.45
2018-07-27T02:30:15.845Z,99029.09
2018-07-27T02:30:47.008Z,99025.94
2018-07-27T02:31:18.133Z,99029.09
2018-07-27T02:31:49.337Z,99025.60
2018-07-27T02:32:20.467Z,99023.05
2018-07-27T02:32:51.702Z,99023.91
2018-07-27T02:33:22.828Z,99027.17
2018-07-27T02:33:54.095Z,99025.47
2018-07-27T02:34:25.218Z,99023.78
2018-07-27T02:34:56.331Z,99027.77
2018-07-27T02:35:27.505Z,99022.95
2018-07-27T02:35:58.659Z,99023.78
2018-07-27T02:36:29.885Z,99022.22
2018-07-27T02:37:01.051Z,99024.60
2018-07-27T02:37:32.218Z,99023.64
2018-07-27T02:38:03.403Z,99023.41
2018-07-27T02:38:34.734Z,99021.58
2018-07-27T02:39:05.853Z,99023.41
2018-07-27T02:39:36.966Z,99028.35
2018-07-27T02:40:08.323Z,99018.55
2018-07-27T02:40:39.581Z,99020.02
2018-07-27T02:41:10.720Z,99018.33
2018-07-27T02:41:41.832Z,99017.86
2018-07-27T02:42:12.955Z,99024.00
2018-07-27T02:42:44.204Z,99020.63
2018-07-27T02:43:15.772Z,99018.23
2018-07-27T02:43:47.044Z,99020.98
2018-07-27T02:44:18.163Z,99023.28
2018-07-27T02:44:49.301Z,99023.04
2018-07-27T02:45:20.415Z,99019.66
2018-07-27T02:45:51.543Z,99017.97
2018-07-27T02:46:22.745Z,99026.43
2018-07-27T02:46:53.924Z,99023.18
2018-07-27T02:47:25.100Z,99028.40
2018-07-27T02:47:56.223Z,99021.89
2018-07-27T02:48:27.390Z,99020.89
2018-07-27T02:48:58.506Z,99026.44
2018-07-27T02:49:29.632Z,99022.12
2018-07-27T02:50:00.756Z,99024.31
2018-07-27T02:50:31.875Z,99019.83
2018-07-27T02:51:03.061Z,99017.67
2018-07-27T02:51:34.238Z,99025.38
2018-07-27T02:52:05.432Z,99021.80
2018-07-27T02:52:36.655Z,99023.00
2018-07-27T02:53:07.878Z,99031.46
2018-07-27T02:53:39.064Z,99020.24
2018-07-27T02:54:10.236Z,99024.83
2018-07-27T02:54:41.568Z,99028.80
2018-07-27T02:55:12.750Z,99031.00
2018-07-27T02:55:43.862Z,99040.06
2018-07-27T02:56:15.027Z,99033.88
2018-07-27T02:56:46.296Z,99029.67
2018-07-27T02:57:18.051Z,99030.41
2018-07-27T02:57:49.223Z,99030.73
2018-07-27T02:58:20.371Z,99034.84
2018-07-27T02:58:51.487Z,99034.58
2018-07-27T02:59:22.643Z,99026.38
2018-07-27T02:59:53.767Z,99031.23
2018-07-27T03:00:24.926Z,99008.33
2018-07-27T03:00:56.049Z,99031.83
2018-07-27T03:01:27.183Z,99032.66
2018-07-27T03:01:58.293Z,99029.04
2018-07-27T03:02:29.408Z,99029.41
2018-07-27T03:03:00.515Z,99030.36
2018-07-27T03:03:31.800Z,99028.44
2018-07-27T03:04:02.919Z,99029.41
2018-07-27T03:04:34.135Z,99031.83
2018-07-27T03:05:05.265Z,99032.06
2018-07-27T03:05:36.501Z,99038.00
2018-07-27T03:06:07.664Z,99031.13
2018-07-27T03:06:38.828Z,99031.96
2018-07-27T03:07:09.943Z,99036.44
2018-07-27T03:07:41.121Z,99036.44
2018-07-27T03:08:12.243Z,99031.96
2018-07-27T03:08:43.363Z,99038.10
2018-07-27T03:09:14.483Z,99042.45
2018-07-27T03:09:45.641Z,99035.45
2018-07-27T03:10:16.806Z,99029.44
2018-07-27T03:10:47.980Z,99038.23
2018-07-27T03:11:19.150Z,99030.77
2018-07-27T03:11:50.355Z,99026.65
2018-07-27T03:12:21.529Z,99032.45
2018-07-27T03:12:52.737Z,99034.75
2018-07-27T03:13:24.158Z,99032.72
2018-07-27T03:13:55.269Z,99035.01
2018-07-27T03:14:26.388Z,99038.76
2018-07-27T03:14:57.499Z,99037.89
2018-07-27T03:15:28.892Z,99039.22
2018-07-27T03:16:00.026Z,99040.09
2018-07-27T03:16:31.208Z,99041.78
2018-07-27T03:17:02.664Z,99041.78
2018-07-27T03:17:33.894Z,99039.36
2018-07-27T03:18:05.152Z,99051.54
2018-07-27T03:18:36.390Z,99048.75
2018-07-27T03:19:07.568Z,99047.92
2018-07-27T03:19:38.708Z,99055.75
2018-07-27T03:20:10.071Z,99057.95
2018-07-27T03:20:41.266Z,99052.27
2018-07-27T03:21:12.546Z,99055.39
2018-07-27T03:21:43.737Z,99054.06
2018-07-27T03:22:14.849Z,99056.37
2018-07-27T03:22:46.004Z,99056.02
2018-07-27T03:23:17.116Z,99056.48
2018-07-27T03:23:48.291Z,99055.05
2018-07-27T03:24:19.425Z,99055.65
2018-07-27T03:24:50.592Z,99061.55
2018-07-27T03:25:21.714Z,99056.74
2018-07-27T03:25:52.886Z,99052.50
2018-07-27T03:26:24.154Z,99050.70
2018-07-27T03:26:55.271Z,99057.58
2018-07-27T03:27:26.553Z,99058.27
2018-07-27T03:27:57.716Z,99056.35
2018-07-27T03:28:28.952Z,99059.61
2018-07-27T03:29:00.133Z,99061.30
2018-07-27T03:29:31.297Z,99055.86
2018-07-27T03:30:02.564Z,99050.41
2018-07-27T03:30:33.744Z,99050.78
2018-07-27T03:31:04.872Z,99049.95
2018-07-27T03:31:36.109Z,99054.89
2018-07-27T03:32:07.292Z,99057.05
2018-07-27T03:32:38.447Z,99056.45
2018-07-27T03:33:09.648Z,99053.47
2018-07-27T03:33:40.771Z,99053.47
2018-07-27T03:34:11.893Z,99055.26
2018-07-27T03:34:43.064Z,99052.97
2018-07-27T03:35:14.179Z,99056.36
2018-07-27T03:35:45.288Z,99049.72
2018-07-27T03:36:16.409Z,99055.36
2018-07-27T03:36:47.661Z,99053.07
2018-07-27T03:37:18.795Z,99056.09
2018-07-27T03:37:49.908Z,99055.13
2018-07-27T03:38:21.103Z,99058.52
2018-07-27T03:38:52.238Z,99055.59
2018-07-27T03:39:23.424Z,99053.80
2018-07-27T03:39:54.622Z,99051.84
2018-07-27T03:40:25.900Z,99048.72
2018-07-27T03:40:57.068Z,99055.23
2018-07-27T03:41:28.192Z,99052.31
2018-07-27T03:41:59.396Z,99056.52
2018-07-27T03:42:30.527Z,99054.47
2018-07-27T03:43:01.837Z,99048.69
2018-07-27T03:43:33.102Z,99051.80
2018-07-27T03:44:04.216Z,99052.17
2018-07-27T03:44:36.028Z,99058.31
2018-07-27T03:45:07.196Z,99047.55
2018-07-27T03:45:38.356Z,99051.53
2018-07-27T03:46:09.540Z,99051.07
2018-07-27T03:46:40.732Z,99056.25
2018-07-27T03:47:11.926Z,99052.27
2018-07-27T03:47:43.043Z,99051.30
2018-07-27T03:48:14.152Z,99053.45
2018-07-27T03:48:45.332Z,99047.91
2018-07-27T03:49:16.490Z,99052.03
2018-07-27T03:49:47.607Z,99056.98
2018-07-27T03:50:18.752Z,99051.80
2018-07-27T03:50:49.929Z,99052.04
2018-07-27T03:51:21.109Z,99059.08
2018-07-27T03:51:52.238Z,99056.89
2018-07-27T03:52:23.419Z,99057.25
2018-07-27T03:52:54.572Z,99058.84
2018-07-27T03:53:25.863Z,99050.05
2018-07-27T03:53:57.056Z,99052.94
2018-07-27T03:54:28.269Z,99051.48
2018-07-27T03:54:59.445Z,99058.84
2018-07-27T03:55:30.741Z,99056.42
2018-07-27T03:56:01.906Z,99051.08
2018-07-27T03:56:34.478Z,99056.25
2018-07-27T03:57:05.698Z,99055.37
2018-07-27T03:57:36.954Z,99051.73
2018-07-27T03:58:08.069Z,99054.20
2018-07-27T03:58:39.223Z,99045.94
2018-07-27T03:59:10.371Z,99051.19
2018-07-27T03:59:41.664Z,99052.81
2018-07-27T04:00:12.824Z,99055.70
2018-07-27T04:00:44.071Z,99057.53
2018-07-27T04:01:15.243Z,99051.73
2018-07-27T04:01:46.559Z,99053.18
2018-07-27T04:02:17.729Z,99044.55
2018-07-27T04:02:49.500Z,99052.95
2018-07-27T04:03:20.615Z,99048.94
2018-07-27T04:03:51.741Z,99046.84
2018-07-27T04:04:22.923Z,99048.03
2018-07-27T04:04:54.265Z,99050.12
2018-07-27T04:05:25.533Z,99053.73
2018-07-27T04:05:56.745Z,99050.94
2018-07-27T04:06:27.964Z,99051.78
2018-07-27T04:06:59.160Z,99051.67
2018-07-27T04:07:30.274Z,99051.77
2018-07-27T04:08:01.430Z,99059.08
2018-07-27T04:08:32.812Z,99053.81
2018-07-27T04:09:03.950Z,99052.73
2018-07-27T04:09:35.117Z,99054.34
2018-07-27T04:10:06.305Z,99050.16
2018-07-27T04:10:37.563Z,99054.55
2018-07-27T04:11:08.779Z,99050.08
2018-07-27T04:11:40.021Z,99050.66
2018-07-27T04:12:11.142Z,99046.61
2018-07-27T04:12:42.402Z,99047.16
2018-07-27T04:13:13.641Z,99045.02
2018-07-27T04:13:44.764Z,99040.77
2018-07-27T04:14:15.936Z,99044.47
2018-07-27T04:14:47.217Z,99047.14
2018-07-27T04:15:18.345Z,99044.04
2018-07-27T04:15:49.559Z,99041.91
2018-07-27T04:16:20.672Z,99046.44
2018-07-27T04:16:51.782Z,99044.81
2018-07-27T04:17:22.956Z,99045.56
2018-07-27T04:17:54.064Z,99047.89
2018-07-27T04:18:25.237Z,99045.20
2018-07-27T04:18:56.344Z,99048.72
2018-07-27T04:19:27.569Z,99044.15
2018-07-27T04:19:58.731Z,99048.38
2018-07-27T04:20:29.851Z,99045.14
2018-07-27T04:21:01.082Z,99042.98
2018-07-27T04:21:32.265Z,99046.83
2018-07-27T04:22:03.379Z,99045.50
2018-07-27T04:22:34.625Z,99044.31
2018-07-27T04:23:05.747Z,99047.11
2018-07-27T04:23:36.918Z,99042.64
2018-07-27T04:24:08.040Z,99041.95
2018-07-27T04:24:39.170Z,99040.86
2018-07-27T04:25:10.338Z,99044.75
2018-07-27T04:25:41.459Z,99039.17
2018-07-27T04:26:12.667Z,99043.30
2018-07-27T04:26:43.855Z,99044.49
2018-07-27T04:27:15.048Z,99037.96
2018-07-27T04:27:46.239Z,99040.34
2018-07-27T04:28:17.355Z,99043.13
2018-07-27T04:28:48.519Z,99047.11
2018-07-27T04:29:19.694Z,99041.79
2018-07-27T04:29:50.934Z,99042.98
2018-07-27T04:30:22.100Z,99042.48
2018-07-27T04:30:53.226Z,99044.91
2018-07-27T04:31:24.351Z,99042.76
2018-07-27T04:31:55.518Z,99046.98
2018-07-27T04:32:26.718Z,99045.30
2018-07-27T04:32:57.844Z,99044.25
2018-07-27T04:33:29.024Z,99045.94
2018-07-27T04:34:00.237Z,99047.41
2018-07-27T04:34:31.428Z,99043.44
2018-07-27T04:35:02.562Z,99046.09
2018-07-27T04:35:33.775Z,99040.69
2018-07-27T04:36:04.892Z,99044.68
2018-07-27T04:36:36.066Z,99042.40
2018-07-27T04:37:07.175Z,99042.17
2018-07-27T04:37:38.315Z,99042.09
2018-07-27T04:38:09.434Z,99044.98
2018-07-27T04:38:40.543Z,99045.03
2018-07-27T04:39:11.771Z,99044.44
2018-07-27T04:39:42.965Z,99050.00
2018-07-27T04:40:14.084Z,99046.75
2018-07-27T04:40:45.256Z,99047.84
2018-07-27T04:41:16.485Z,99045.55
2018-07-27T04:41:47.603Z,99047.16
2018-07-27T04:42:18.739Z,99053.30
2018-07-27T04:42:50.059Z,99049.09
2018-07-27T04:43:21.211Z,99045.97
2018-07-27T04:43:52.385Z,99047.50
2018-07-27T04:44:23.760Z,99040.53
2018-07-27T04:44:54.879Z,99045.12
2018-07-27T04:45:25.988Z,99044.89
2018-07-27T04:45:57.159Z,99047.78
2018-07-27T04:46:28.337Z,99049.24
2018-07-27T04:46:59.549Z,99048.87
2018-07-27T04:47:30.721Z,99047.32
2018-07-27T04:48:01.897Z,99048.52
2018-07-27T04:48:33.247Z,99051.90
2018-07-27T04:49:04.527Z,99048.41
2018-07-27T04:49:35.897Z,99047.91
2018-07-27T04:50:07.024Z,99045.63
2018-07-27T04:50:38.158Z,99055.28
2018-07-27T04:51:09.260Z,99053.45
2018-07-27T04:51:40.390Z,99049.84
2018-07-27T04:52:11.540Z,99055.52
2018-07-27T04:52:43.251Z,99052.59
2018-07-27T04:53:14.491Z,99054.88
2018-07-27T04:53:45.768Z,99057.54
2018-07-27T04:54:17.150Z,99052.99
2018-07-27T04:54:48.372Z,99052.12
2018-07-27T04:55:19.568Z,99059.63
2018-07-27T04:55:51.046Z,99057.20
2018-07-27T04:56:22.159Z,99053.69
2018-07-27T04:56:53.461Z,99058.41
2018-07-27T04:57:24.499Z,99058.41
2018-07-27T04:57:55.754Z,99056.58
2018-07-27T04:58:26.971Z,99059.12
2018-07-27T04:58:58.147Z,99056.80
2018-07-27T04:59:29.268Z,99056.20
2018-07-27T05:00:00.449Z,99058.39
2018-07-27T05:00:31.657Z,99061.64
2018-07-27T05:01:02.877Z,99059.95
2018-07-27T05:01:33.988Z,99062.61
2018-07-27T05:02:05.103Z,99059.94
2018-07-27T05:02:36.332Z,99064.16
2018-07-27T05:03:07.471Z,99062.83
2018-07-27T05:03:38.655Z,99062.70
2018-07-27T05:04:09.837Z,99067.31
2018-07-27T05:04:40.954Z,99065.02
2018-07-27T05:05:12.085Z,99056.41
2018-07-27T05:05:44.338Z,99057.61
2018-07-27T05:06:15.562Z,99064.48
2018-07-27T05:06:46.746Z,99065.12
2018-07-27T05:07:17.884Z,99064.98
2018-07-27T05:07:49.141Z,99063.16
2018-07-27T05:08:20.569Z,99065.81
2018-07-27T05:08:51.761Z,99061.82
2018-07-27T05:09:22.926Z,99064.02
2018-07-27T05:09:54.054Z,99060.03
2018-07-27T05:10:25.437Z,99062.69
2018-07-27T05:10:56.696Z,99066.67
2018-07-27T05:11:27.924Z,99059.53
2018-07-27T05:11:59.056Z,99065.44
2018-07-27T05:12:30.207Z,99062.04
2018-07-27T05:13:01.512Z,99062.99
2018-07-27T05:13:32.778Z,99060.06
2018-07-27T05:14:03.904Z,99066.47
2018-07-27T05:14:35.017Z,99061.62
2018-07-27T05:15:06.145Z,99061.52
2018-07-27T05:15:37.298Z,99057.85
2018-07-27T05:16:08.645Z,99060.05
2018-07-27T05:16:39.833Z,99058.72
2018-07-27T05:17:11.077Z,99060.13
2018-07-27T05:17:42.204Z,99060.63
2018-07-27T05:18:13.343Z,99058.80
2018-07-27T05:18:44.460Z,99058.34
2018-07-27T05:19:15.932Z,99051.55
2018-07-27T05:19:47.057Z,99060.72
2018-07-27T05:20:18.220Z,99053.34
2018-07-27T05:20:49.328Z,99054.36
2018-07-27T05:21:20.502Z,99052.72
2018-07-27T05:21:51.676Z,99060.21
2018-07-27T05:22:23.027Z,99057.55
2018-07-27T05:22:54.140Z,99056.34
2018-07-27T05:23:25.411Z,99052.22
2018-07-27T05:23:56.657Z,99054.97
2018-07-27T05:24:27.785Z,99061.23
2018-07-27T05:24:59.018Z,99057.98
2018-07-27T05:25:30.185Z,99052.30
2018-07-27T05:26:01.373Z,99057.85
2018-07-27T05:26:32.545Z,99060.78
2018-07-27T05:27:03.681Z,99058.50
2018-07-27T05:27:34.897Z,99056.59
2018-07-27T05:28:06.126Z,99055.03
2018-07-27T05:28:37.312Z,99055.16
2018-07-27T05:29:08.493Z,99058.41
2018-07-27T05:29:39.661Z,99058.28
2018-07-27T05:30:10.845Z,99060.06
2018-07-27T05:30:42.025Z,99065.83
2018-07-27T05:31:13.200Z,99057.34
2018-07-27T05:31:44.319Z,99059.23
2018-07-27T05:32:15.463Z,99063.39
2018-07-27T05:32:46.599Z,99061.02
2018-07-27T05:33:17.724Z,99059.86
2018-07-27T05:33:49.008Z,99062.86
2018-07-27T05:34:20.195Z,99065.43
2018-07-27T05:34:51.451Z,99067.92
2018-07-27T05:35:22.565Z,99067.03
2018-07-27T05:35:53.679Z,99074.05
2018-07-27T05:36:24.857Z,99056.52
2018-07-27T05:36:56.029Z,99066.45
2018-07-27T05:37:27.257Z,99065.63
2018-07-27T05:37:58.436Z,99062.67
2018-07-27T05:38:29.612Z,99066.81
2018-07-27T05:39:00.823Z,99071.02
2018-07-27T05:39:32.055Z,99073.90
2018-07-27T05:40:03.300Z,99039.17
2018-07-27T05:40:34.419Z,99063.97
2018-07-27T05:41:05.704Z,99064.52
2018-07-27T05:41:36.970Z,99066.92
2018-07-27T05:42:08.158Z,99065.95
2018-07-27T05:42:39.345Z,99067.43
2018-07-27T05:43:10.526Z,99064.88
2018-07-27T05:43:41.749Z,99068.41
2018-07-27T05:44:13.039Z,99070.31
2018-07-27T05:44:44.205Z,99067.97
2018-07-27T05:45:15.381Z,99066.31
2018-07-27T05:45:46.510Z,99066.20
2018-07-27T05:46:17.736Z,99068.80
2018-07-27T05:46:48.887Z,99072.79
2018-07-27T05:47:20.085Z,99074.62
2018-07-27T05:47:51.248Z,99069.41
2018-07-27T05:48:22.421Z,99074.73
2018-07-27T05:48:53.617Z,99071.84
2018-07-27T05:49:24.836Z,99075.98
2018-07-27T05:49:56.140Z,99072.96
2018-07-27T05:50:27.256Z,99079.15
2018-07-27T05:50:58.565Z,99078.50
2018-07-27T05:51:29.679Z,99076.17
2018-07-27T05:52:00.851Z,99074.62
2018-07-27T05:52:32.093Z,99074.59
2018-07-27T05:53:03.241Z,99072.98
2018-07-27T05:53:34.559Z,99067.55
2018-07-27T05:54:05.727Z,99069.56
2018-07-27T05:54:37.045Z,99073.34
2018-07-27T05:55:08.214Z,99074.95
2018-07-27T05:55:39.394Z,99079.42
2018-07-27T05:56:10.597Z,99078.84
2018-07-27T05:56:41.805Z,99078.02
2018-07-27T05:57:12.953Z,99076.07
2018-07-27T05:57:44.077Z,99076.90
2018-07-27T05:58:15.236Z,99080.14
2018-07-27T05:58:46.352Z,99080.58
2018-07-27T05:59:17.531Z,99083.09
2018-07-27T05:59:48.730Z,99079.52
2018-07-27T06:00:20.009Z,99072.51
2018-07-27T06:00:51.197Z,99083.52
2018-07-27T06:01:22.384Z,99078.20
2018-07-27T06:01:53.678Z,99080.21
2018-07-27T06:02:24.992Z,99078.55
2018-07-27T06:02:56.143Z,99082.01
2018-07-27T06:03:27.333Z,99079.52
2018-07-27T06:03:58.524Z,99082.72
2018-07-27T06:04:29.853Z,99078.03
2018-07-27T06:05:01.038Z,99080.77
2018-07-27T06:05:32.204Z,99081.19
2018-07-27T06:06:03.333Z,99080.02